Port Alsworth, AK

5:25 AM AKST on December 05, 2019 (GMT -0900)
BushSavvySolutionsLLC | | Change Station
Active Advisory: Winter Weather Advisory

Elev 290 ft 60.20 °N, 154.33 °W | Updated 9 seconds ago

Overcast
Overcast
5.5 °F
Feels Like 6 °F
N
0
Wind Variable Wind from SSE
Gusts 0.0 mph

Today
High -- | Low -- °F
--% Chance of Precip.
Yesterday
High -- | Low -- °F
Precip. -- in
Pressure 29.83 in
Visibility 10.0 miles
Clouds Mostly Cloudy 11000 ft
Windchill 6 °F
Dew Point 5 °F
Humidity 99%
Rainfall 0.00 in
Snow Depth Not available.
10:01 AM 4:13 PM
Waxing Gibbous, 62% visible
METAR PAIL 051253Z AUTO 01009KT 10SM BKN110 M12/M12 A2981 RMK AO2 SLP101 T11171117 TSNO
Pressure 29.83 in
Visibility 10.0 miles
Clouds Mostly Cloudy 11000 ft
Windchill 6 °F
Dew Point 5 °F
Humidity 99%
Rainfall 0.00 in
Snow Depth Not available.
10:01 AM 4:13 PM
Waxing Gibbous, 62% visible
METAR PAIL 051253Z AUTO 01009KT 10SM BKN110 M12/M12 A2981 RMK AO2 SLP101 T11171117 TSNO

Get Your Daily Forecast Email!

Thanks for signing up!

Be on the lookout for a verification email in your inbox.

You'll start receiving severe weather alerts in your inbox..

×

10-Day Weather Forecast

Almanac

Astronomy

Dec. 05, 2019 Rise Set
Actual Time
Civil Twilight
Nautical Twilight
Astronomical Twilight
Moon
Length of Visible Light
Length of Day
Tomorrow will be .
, % of the Moon is Illuminated

Today's Extremes

State Highs State Lows

Community

WunderPhotos

Category 6

Welcome to Category 6. This is the collective home for Weather Underground's featured writeups by Dr. Jeff Masters (right), Bob Henson (left), Chris Burt, and other regular contributors.

Nearby

Air Quality

  Air Quality AQ Index Pollutant
Not available.

Snow Depth

Station Depth Elevation

Earthquake Activity

City Distance Mag. Time & Date
Minimum magnitude displayed is 2.5.

Coastal Water Temperatures

Place Temperature

Stations

Nearby Weather Stations

Station Location Temp. Windchill Dew Point Humidity Wind Precip. Elev Updated Type
                   

Watches & Warnings

Winter Weather Advisory
Issued: 3:25 AM AKST Dec. 5, 2019 – National Weather Service

... Winter Weather Advisory remains in effect until 1 PM akst this
afternoon...

* what... snow and blowing snow expected. Visibilities reduced to
one half mile or less at times. North to east winds gusting 25
to 35 mph, except as high as 50 mph along the western CAPES.

* Where... Bristol Bay.

* When... from 9 PM this evening to 1 PM akst Thursday.

* Impacts... plan on slippery Road conditions. Areas of blowing
snow could significantly reduce visibility.

* Additional details... additional snow accumulations of 1 to 5
inches, highest amounts near Dillingham.

Precautionary/preparedness actions...

A Winter Weather Advisory for blowing snow means that
visibilities will be limited due to strong winds blowing snow
around. Use caution when traveling.



Http://www.Weather.Gov/afc